createdAt,value
2023-05-10T00:00:57.379Z,41.35
2023-05-10T00:03:24.699Z,40.17
2023-05-10T00:05:51.797Z,41.50
2023-05-10T00:08:18.784Z,41.33
2023-05-10T00:10:45.769Z,40.63
2023-05-10T00:13:13.080Z,41.25
2023-05-10T00:15:40.064Z,40.38
2023-05-10T00:18:07.436Z,41.92
2023-05-10T00:20:34.556Z,40.92
2023-05-10T00:23:01.856Z,41.13
2023-05-10T00:25:28.858Z,40.92
2023-05-10T00:27:58.562Z,39.88
2023-05-10T00:30:25.839Z,39.50
2023-05-10T00:32:53.261Z,39.67
2023-05-10T00:35:20.460Z,39.88
2023-05-10T00:37:47.490Z,40.38
2023-05-10T00:40:16.222Z,41.08
2023-05-10T00:42:43.527Z,40.22
2023-05-10T00:45:10.851Z,41.15
2023-05-10T00:47:37.920Z,41.38
2023-05-10T00:50:06.497Z,42.22
2023-05-10T00:52:33.708Z,40.95
2023-05-10T00:55:01.508Z,41.35
2023-05-10T00:57:28.664Z,41.65
2023-05-10T00:59:55.716Z,40.92
2023-05-10T01:02:22.907Z,40.63
2023-05-10T01:04:51.056Z,41.65
2023-05-10T01:07:18.130Z,41.30
2023-05-10T01:09:45.302Z,40.63
2023-05-10T01:12:12.863Z,41.15
2023-05-10T01:14:40.165Z,40.50
2023-05-10T01:17:08.796Z,40.40
2023-05-10T01:19:36.563Z,40.35
2023-05-10T01:22:37.153Z,40.30
2023-05-10T01:25:05.465Z,41.30
2023-05-10T01:27:50.943Z,40.60
2023-05-10T01:30:36.394Z,40.30
2023-05-10T01:33:26.244Z,39.15
2023-05-10T01:36:01.636Z,38.08
2023-05-10T01:38:52.893Z,37.63
2023-05-10T01:41:31.950Z,38.03
2023-05-10T01:44:21.771Z,37.50
2023-05-10T01:46:54.421Z,37.95
2023-05-10T01:49:31.985Z,37.50
2023-05-10T01:52:08.108Z,36.53
2023-05-10T01:54:36.743Z,35.17
2023-05-10T01:57:10.050Z,37.00
2023-05-10T01:59:42.852Z,37.13
2023-05-10T02:02:15.098Z,36.50
2023-05-10T02:04:43.227Z,34.70
2023-05-10T02:07:11.821Z,34.42
2023-05-10T02:09:39.812Z,33.85
2023-05-10T02:12:09.147Z,33.17
2023-05-10T02:14:38.177Z,32.40
2023-05-10T02:17:07.117Z,32.17
2023-05-10T02:19:37.210Z,32.83
2023-05-10T02:22:05.448Z,31.90
2023-05-10T02:24:34.887Z,31.40
2023-05-10T02:27:04.668Z,31.45
2023-05-10T02:29:33.645Z,30.85
2023-05-10T02:32:02.010Z,29.70
2023-05-10T02:34:30.131Z,29.88
2023-05-10T02:36:58.282Z,29.77
2023-05-10T02:39:27.702Z,30.08
2023-05-10T02:41:56.369Z,29.80
2023-05-10T02:44:24.960Z,30.05
2023-05-10T02:46:52.375Z,30.10
2023-05-10T02:49:20.016Z,30.17
2023-05-10T02:51:52.710Z,30.35
2023-05-10T02:54:32.956Z,29.42
2023-05-10T02:57:04.020Z,29.40
2023-05-10T02:59:31.042Z,27.90
2023-05-10T03:01:58.094Z,27.55
2023-05-10T03:04:25.537Z,26.27
2023-05-10T03:06:52.832Z,27.38
2023-05-10T03:09:20.993Z,27.27
2023-05-10T03:12:16.924Z,26.35
2023-05-10T03:15:04.705Z,26.02
2023-05-10T03:17:42.766Z,26.77
2023-05-10T03:20:20.238Z,26.48
2023-05-10T03:22:52.038Z,26.88
2023-05-10T03:25:22.034Z,26.73
2023-05-10T03:27:49.787Z,26.77
2023-05-10T03:30:18.187Z,26.40
2023-05-10T03:32:45.556Z,26.80
2023-05-10T03:35:16.882Z,26.98
2023-05-10T03:37:44.119Z,26.73
2023-05-10T03:40:13.249Z,27.13
2023-05-10T03:42:40.387Z,27.05
2023-05-10T03:45:08.384Z,27.95
2023-05-10T03:47:36.480Z,27.40
2023-05-10T03:50:03.579Z,26.90
2023-05-10T03:52:30.654Z,26.77
2023-05-10T03:54:57.704Z,26.55
2023-05-10T03:57:25.123Z,26.15
2023-05-10T03:59:52.092Z,26.73
2023-05-10T04:02:20.943Z,26.05
2023-05-10T04:04:48.059Z,25.23
2023-05-10T04:07:15.341Z,27.30
2023-05-10T04:09:42.367Z,26.80
2023-05-10T04:12:10.858Z,26.80
2023-05-10T04:14:38.386Z,25.88
2023-05-10T04:17:05.604Z,25.70
2023-05-10T04:19:33.061Z,24.75
2023-05-10T04:22:00.826Z,25.20
2023-05-10T04:24:27.879Z,26.00
2023-05-10T04:26:57.794Z,25.05
2023-05-10T04:29:25.191Z,26.08
2023-05-10T04:31:52.205Z,25.60
2023-05-10T04:34:20.090Z,25.40
2023-05-10T04:36:48.614Z,25.48
2023-05-10T04:39:15.600Z,25.33
2023-05-10T04:41:42.721Z,25.73
2023-05-10T04:44:11.459Z,25.65
2023-05-10T04:46:38.747Z,26.00
2023-05-10T04:49:05.843Z,26.13
2023-05-10T04:51:33.381Z,25.23
2023-05-10T04:54:06.202Z,25.02
2023-05-10T04:56:34.135Z,24.13
2023-05-10T04:59:01.473Z,23.67
2023-05-10T05:01:28.666Z,23.38
2023-05-10T05:03:57.332Z,23.20
2023-05-10T05:06:26.055Z,23.17
2023-05-10T05:08:54.352Z,23.15
2023-05-10T05:11:22.157Z,23.15
2023-05-10T05:13:49.236Z,22.83
2023-05-10T05:16:16.336Z,22.75
2023-05-10T05:18:45.128Z,22.38
2023-05-10T05:21:19.748Z,22.85
2023-05-10T05:23:47.404Z,22.50
2023-05-10T05:26:14.536Z,23.20
2023-05-10T05:28:41.553Z,23.23
2023-05-10T05:31:09.136Z,23.63
2023-05-10T05:33:36.481Z,26.13
2023-05-10T05:36:05.139Z,23.70
2023-05-10T05:38:32.430Z,23.95
2023-05-10T05:41:01.787Z,23.52
2023-05-10T05:43:28.864Z,23.13
2023-05-10T05:45:56.468Z,24.20
2023-05-10T05:48:24.740Z,24.50
2023-05-10T05:50:55.039Z,25.42
2023-05-10T05:53:22.528Z,24.27
2023-05-10T05:55:57.435Z,25.50
2023-05-10T05:58:25.048Z,24.13
2023-05-10T06:00:55.774Z,23.67
2023-05-10T06:03:23.188Z,23.83
2023-05-10T06:05:50.369Z,22.77
2023-05-10T06:08:17.456Z,21.92
2023-05-10T06:10:46.596Z,21.15
2023-05-10T06:13:14.022Z,20.23
2023-05-10T06:15:41.430Z,20.27
2023-05-10T06:18:08.674Z,23.10
2023-05-10T06:20:37.210Z,21.63
2023-05-10T06:23:04.555Z,20.05
2023-05-10T06:25:32.642Z,19.80
2023-05-10T06:27:59.822Z,18.83
2023-05-10T06:30:30.466Z,19.30
2023-05-10T06:32:58.197Z,19.52
2023-05-10T06:35:25.697Z,19.58
2023-05-10T06:37:52.900Z,20.08
2023-05-10T06:40:20.590Z,19.85
2023-05-10T06:42:49.812Z,20.02
2023-05-10T06:45:17.815Z,19.15
2023-05-10T06:47:47.121Z,20.10
2023-05-10T06:50:14.365Z,19.60
2023-05-10T06:52:41.847Z,18.60
2023-05-10T06:55:09.932Z,19.90
2023-05-10T06:57:38.334Z,20.65
2023-05-10T07:00:06.252Z,21.20
2023-05-10T07:02:33.939Z,22.38
2023-05-10T07:05:15.464Z,22.35
2023-05-10T07:07:43.467Z,21.38
2023-05-10T07:10:12.037Z,20.25
2023-05-10T07:12:39.702Z,20.67
2023-05-10T07:15:07.645Z,19.27
2023-05-10T07:17:35.050Z,18.65
2023-05-10T07:20:02.782Z,18.35
2023-05-10T07:22:29.734Z,17.80
2023-05-10T07:24:57.084Z,17.02
2023-05-10T07:27:24.482Z,16.20
2023-05-10T07:29:53.054Z,16.65
2023-05-10T07:32:22.804Z,16.58
2023-05-10T07:34:49.968Z,16.88
2023-05-10T07:37:16.905Z,16.63
2023-05-10T07:39:43.895Z,17.08
2023-05-10T07:42:12.859Z,17.08
2023-05-10T07:44:40.007Z,16.98
2023-05-10T07:47:07.238Z,16.88
2023-05-10T07:49:35.248Z,17.05
2023-05-10T07:52:03.983Z,16.85
2023-05-10T07:54:31.364Z,16.77
2023-05-10T07:56:58.502Z,16.77
2023-05-10T07:59:25.607Z,16.45
2023-05-10T08:01:52.648Z,16.17
2023-05-10T08:04:19.708Z,16.05
2023-05-10T08:06:46.769Z,15.85
2023-05-10T08:09:14.724Z,16.55
2023-05-10T08:11:42.126Z,16.13
2023-05-10T08:14:09.154Z,16.30
2023-05-10T08:16:36.478Z,16.50
2023-05-10T08:19:03.690Z,16.33
2023-05-10T08:21:32.286Z,16.90
2023-05-10T08:23:59.310Z,16.33
2023-05-10T08:26:27.110Z,15.85
2023-05-10T08:28:56.568Z,16.20
2023-05-10T08:31:24.840Z,16.38
2023-05-10T08:33:53.853Z,16.50
2023-05-10T08:36:22.992Z,16.83
2023-05-10T08:38:53.436Z,16.83
2023-05-10T08:41:27.514Z,16.73
2023-05-10T08:43:55.465Z,17.50
2023-05-10T08:46:24.383Z,20.10
2023-05-10T08:48:53.335Z,19.55
2023-05-10T08:51:26.787Z,19.40
2023-05-10T08:53:54.181Z,19.10
2023-05-10T08:56:22.125Z,17.90
2023-05-10T08:58:50.137Z,18.27
2023-05-10T09:01:19.485Z,16.90
2023-05-10T09:03:49.020Z,16.55
2023-05-10T09:06:16.845Z,16.15
2023-05-10T09:08:44.737Z,16.67
2023-05-10T09:11:14.690Z,16.20
2023-05-10T09:13:42.980Z,16.10
2023-05-10T09:16:21.389Z,16.17
2023-05-10T09:18:50.693Z,16.23
2023-05-10T09:21:18.238Z,16.60
2023-05-10T09:23:51.390Z,16.35
2023-05-10T09:26:22.959Z,16.25
2023-05-10T09:28:55.805Z,16.90
2023-05-10T09:31:23.242Z,16.67
2023-05-10T09:33:52.007Z,16.15
2023-05-10T09:36:20.236Z,16.35
2023-05-10T09:38:53.024Z,16.02
2023-05-10T09:41:22.116Z,17.13
2023-05-10T09:43:49.841Z,15.55
2023-05-10T09:46:17.669Z,15.77
2023-05-10T09:48:47.053Z,15.95
2023-05-10T09:51:21.652Z,16.00
2023-05-10T09:53:51.620Z,15.73
2023-05-10T09:56:38.707Z,15.45
2023-05-10T09:59:08.192Z,15.68
2023-05-10T10:01:37.112Z,15.15
2023-05-10T10:04:06.932Z,14.88
2023-05-10T10:06:38.921Z,15.30
2023-05-10T10:09:07.461Z,15.32
2023-05-10T10:11:39.022Z,15.48
2023-05-10T10:14:06.883Z,15.35
2023-05-10T10:16:34.307Z,15.35
2023-05-10T10:19:02.329Z,15.70
2023-05-10T10:21:29.940Z,15.70
2023-05-10T10:23:57.289Z,15.65
2023-05-10T10:26:25.047Z,15.75
2023-05-10T10:29:27.796Z,16.27
2023-05-10T10:32:31.209Z,16.45
2023-05-10T10:35:00.208Z,16.83
2023-05-10T10:37:46.496Z,16.88
2023-05-10T10:40:27.818Z,16.55
2023-05-10T10:42:55.734Z,16.45
2023-05-10T10:45:24.050Z,16.50
2023-05-10T10:48:25.001Z,16.42
2023-05-10T10:50:59.202Z,16.38
2023-05-10T10:56:22.901Z,16.55
2023-05-10T10:58:55.356Z,16.63
2023-05-10T11:01:22.523Z,15.93
2023-05-10T11:04:02.032Z,16.10
2023-05-10T11:06:37.160Z,16.17
2023-05-10T11:09:12.748Z,16.52
2023-05-10T11:12:00.547Z,16.52
2023-05-10T11:14:28.140Z,16.25
2023-05-10T11:16:55.358Z,16.83
2023-05-10T11:19:22.441Z,16.80
2023-05-10T11:21:50.737Z,16.25
2023-05-10T11:24:21.794Z,16.55
2023-05-10T11:26:51.574Z,17.10
2023-05-10T11:29:19.158Z,17.15
2023-05-10T11:31:48.687Z,16.35
2023-05-10T11:34:29.348Z,16.92
2023-05-10T11:36:57.366Z,17.90
2023-05-10T11:39:29.236Z,17.88
2023-05-10T11:41:56.689Z,18.65
2023-05-10T11:44:30.280Z,19.10
2023-05-10T11:47:02.941Z,17.10
2023-05-10T11:49:31.485Z,16.75
2023-05-10T11:52:12.530Z,16.77
2023-05-10T11:54:46.119Z,16.63
2023-05-10T11:57:13.196Z,16.63
2023-05-10T11:59:41.727Z,17.30
2023-05-10T12:02:10.117Z,16.55
2023-05-10T12:04:37.372Z,15.77
2023-05-10T12:07:04.612Z,15.70
2023-05-10T12:09:43.199Z,16.10
2023-05-10T12:12:11.301Z,15.63
2023-05-10T12:14:38.343Z,15.27
2023-05-10T12:17:05.829Z,15.60
2023-05-10T12:19:40.056Z,15.35
2023-05-10T12:22:07.881Z,15.90
2023-05-10T12:24:39.388Z,15.68
2023-05-10T12:27:09.347Z,15.65
2023-05-10T12:29:36.706Z,15.05
2023-05-10T12:32:03.846Z,16.05
2023-05-10T12:34:37.459Z,15.85
2023-05-10T12:37:04.677Z,15.93
2023-05-10T12:39:45.959Z,15.40
2023-05-10T12:42:13.157Z,15.45
2023-05-10T12:44:42.033Z,15.90
2023-05-10T12:47:09.243Z,18.10
2023-05-10T12:49:36.646Z,16.67
2023-05-10T12:52:03.701Z,16.85
2023-05-10T12:54:30.777Z,17.48
2023-05-10T12:56:58.979Z,16.60
2023-05-10T12:59:26.034Z,17.17
2023-05-10T13:01:53.243Z,16.70
2023-05-10T13:04:20.293Z,16.42
2023-05-10T13:06:47.437Z,16.30
2023-05-10T13:09:14.468Z,17.05
2023-05-10T13:11:41.969Z,16.73
2023-05-10T13:14:09.296Z,17.13
2023-05-10T13:16:36.296Z,16.90
2023-05-10T13:19:04.423Z,16.27
2023-05-10T13:21:31.629Z,17.02
2023-05-10T13:23:59.051Z,17.00
2023-05-10T13:26:26.682Z,16.30
2023-05-10T13:28:53.784Z,18.10
2023-05-10T13:31:22.424Z,19.25
2023-05-10T13:33:49.467Z,19.88
2023-05-10T13:36:16.571Z,20.13
2023-05-10T13:38:43.558Z,20.90
2023-05-10T13:41:11.348Z,22.23
2023-05-10T13:43:38.406Z,21.15
2023-05-10T13:46:05.873Z,21.50
2023-05-10T13:48:33.095Z,21.42
2023-05-10T13:51:00.334Z,21.33
2023-05-10T13:53:27.409Z,21.75
2023-05-10T13:55:54.642Z,21.45
2023-05-10T13:58:21.788Z,22.40
2023-05-10T14:00:50.630Z,22.60
2023-05-10T14:03:18.273Z,21.02
2023-05-10T14:05:46.464Z,22.58
2023-05-10T14:08:14.373Z,22.80
2023-05-10T14:10:41.658Z,23.27
2023-05-10T14:13:09.055Z,23.75
2023-05-10T14:15:36.037Z,23.02
2023-05-10T14:18:03.459Z,22.60
2023-05-10T14:20:31.611Z,22.05
2023-05-10T14:22:58.820Z,26.15
2023-05-10T14:25:27.565Z,24.05
2023-05-10T14:27:55.835Z,23.48
2023-05-10T14:30:23.113Z,22.55
2023-05-10T14:32:50.565Z,22.98
2023-05-10T14:35:19.487Z,23.95
2023-05-10T14:37:46.945Z,23.52
2023-05-10T14:40:15.241Z,23.27
2023-05-10T14:42:44.393Z,23.95
2023-05-10T14:45:12.551Z,23.52
2023-05-10T14:47:39.726Z,22.63
2023-05-10T14:50:07.288Z,22.40
2023-05-10T14:52:34.527Z,23.35
2023-05-10T14:55:02.515Z,23.38
2023-05-10T14:57:30.822Z,58.47
2023-05-10T14:59:58.194Z,23.90
2023-05-10T15:02:25.763Z,22.17
2023-05-10T15:04:54.634Z,20.40
2023-05-10T15:07:23.693Z,21.38
2023-05-10T15:09:52.899Z,21.95
2023-05-10T15:12:20.196Z,22.15
2023-05-10T15:14:47.722Z,22.20
2023-05-10T15:17:14.690Z,22.75
2023-05-10T15:19:41.659Z,23.75
2023-05-10T15:22:08.731Z,24.20
2023-05-10T15:24:37.037Z,24.70
2023-05-10T15:27:04.119Z,24.60
2023-05-10T15:29:32.598Z,25.52
2023-05-10T15:31:59.599Z,22.92
2023-05-10T15:34:26.858Z,23.15
2023-05-10T15:36:53.987Z,22.98
2023-05-10T15:39:21.142Z,23.15
2023-05-10T15:41:48.352Z,23.33
2023-05-10T15:44:16.512Z,22.58
2023-05-10T15:46:43.577Z,22.33
2023-05-10T15:49:10.686Z,22.05
2023-05-10T15:51:37.982Z,22.60
2023-05-10T15:54:08.255Z,22.35
2023-05-10T15:56:35.942Z,23.50
2023-05-10T15:59:06.197Z,24.45
2023-05-10T16:01:33.369Z,23.92
2023-05-10T16:04:01.055Z,23.58
2023-05-10T16:06:28.077Z,24.70
2023-05-10T16:08:55.127Z,24.55
2023-05-10T16:11:22.430Z,24.42
2023-05-10T16:13:49.450Z,24.33
2023-05-10T16:16:16.571Z,24.00
2023-05-10T16:18:44.128Z,23.90
2023-05-10T16:21:11.560Z,24.67
2023-05-10T16:23:38.794Z,25.15
2023-05-10T16:26:07.663Z,24.38
2023-05-10T16:28:35.772Z,24.48
2023-05-10T16:31:03.586Z,24.38
2023-05-10T16:33:30.754Z,23.95
2023-05-10T16:35:58.173Z,24.20
2023-05-10T16:38:26.927Z,24.15
2023-05-10T16:40:53.961Z,23.42
2023-05-10T16:43:20.910Z,22.60
2023-05-10T16:45:47.914Z,21.88
2023-05-10T16:48:15.516Z,22.02
2023-05-10T16:50:46.190Z,21.38
2023-05-10T16:53:13.932Z,20.75
2023-05-10T16:55:41.200Z,20.55
2023-05-10T16:58:08.308Z,19.77
2023-05-10T17:00:36.664Z,19.55
2023-05-10T17:03:04.413Z,20.08
2023-05-10T17:05:31.514Z,21.35
2023-05-10T17:07:58.601Z,20.48
2023-05-10T17:10:25.622Z,20.77
2023-05-10T17:12:53.917Z,20.15
2023-05-10T17:15:21.217Z,19.95
2023-05-10T17:17:48.427Z,19.10
2023-05-10T17:20:15.520Z,18.45
2023-05-10T17:22:42.609Z,18.65
2023-05-10T17:25:10.131Z,18.77
2023-05-10T17:27:37.225Z,19.23
2023-05-10T17:30:04.591Z,19.40
2023-05-10T17:32:31.661Z,19.83
2023-05-10T17:34:58.715Z,19.70
2023-05-10T17:37:25.988Z,20.10
2023-05-10T17:39:53.047Z,19.88
2023-05-10T17:42:20.956Z,20.00
2023-05-10T17:44:48.241Z,20.48
2023-05-10T17:47:16.290Z,20.45
2023-05-10T17:49:43.328Z,20.65
2023-05-10T17:52:10.420Z,21.23
2023-05-10T17:54:37.366Z,21.38
2023-05-10T17:57:04.440Z,21.35
2023-05-10T17:59:31.501Z,20.98
2023-05-10T18:01:58.442Z,20.77
2023-05-10T18:04:26.158Z,21.08
2023-05-10T18:07:01.069Z,22.00
2023-05-10T18:09:30.098Z,22.45
2023-05-10T18:11:57.029Z,23.25
2023-05-10T18:14:38.938Z,22.27
2023-05-10T18:17:07.350Z,22.70
2023-05-10T18:19:34.764Z,22.75
2023-05-10T18:22:01.789Z,22.42
2023-05-10T18:24:38.486Z,22.60
2023-05-10T18:27:07.209Z,24.95
2023-05-10T18:29:34.294Z,24.40
2023-05-10T18:32:01.277Z,23.90
2023-05-10T18:34:28.994Z,24.27
2023-05-10T18:36:56.506Z,24.02
2023-05-10T18:39:24.412Z,24.00
2023-05-10T18:41:51.525Z,24.08
2023-05-10T18:44:19.226Z,24.00
2023-05-10T18:46:46.685Z,25.25
2023-05-10T18:49:13.703Z,25.33
2023-05-10T18:51:40.645Z,24.88
2023-05-10T18:54:07.756Z,26.80
2023-05-10T18:56:35.971Z,29.52
2023-05-10T18:59:03.857Z,28.65
2023-05-10T19:01:30.987Z,28.25
2023-05-10T19:03:58.248Z,29.27
2023-05-10T19:06:25.365Z,31.42
2023-05-10T19:08:52.702Z,30.05
2023-05-10T19:11:20.200Z,28.58
2023-05-10T19:13:47.423Z,30.98
2023-05-10T19:16:16.843Z,30.42
2023-05-10T19:18:45.886Z,32.90
2023-05-10T19:21:13.182Z,32.50
2023-05-10T19:23:41.795Z,31.25
2023-05-10T19:26:10.662Z,31.00
2023-05-10T19:28:37.829Z,30.27
2023-05-10T19:31:06.424Z,29.75
2023-05-10T19:33:33.790Z,28.75
2023-05-10T19:36:01.162Z,28.98
2023-05-10T19:38:30.399Z,29.38
2023-05-10T19:40:58.355Z,29.50
2023-05-10T19:43:28.537Z,29.30
2023-05-10T19:45:59.538Z,28.00
2023-05-10T19:48:26.937Z,28.45
2023-05-10T19:50:59.334Z,28.60
2023-05-10T19:53:28.079Z,29.42
2023-05-10T19:55:56.311Z,30.38
2023-05-10T19:58:23.878Z,30.40
2023-05-10T20:00:50.998Z,29.92
2023-05-10T20:03:18.026Z,29.85
2023-05-10T20:05:45.174Z,30.00
2023-05-10T20:08:12.202Z,31.92
2023-05-10T20:10:39.197Z,31.10
2023-05-10T20:13:06.318Z,31.70
2023-05-10T20:15:33.841Z,30.42
2023-05-10T20:18:00.962Z,30.55
2023-05-10T20:20:29.150Z,30.85
2023-05-10T20:22:56.634Z,31.77
2023-05-10T20:25:24.185Z,32.03
2023-05-10T20:27:51.337Z,32.08
2023-05-10T20:30:19.212Z,31.52
2023-05-10T20:32:46.539Z,31.15
2023-05-10T20:35:13.592Z,32.17
2023-05-10T20:37:41.026Z,33.00
2023-05-10T20:40:08.729Z,31.63
2023-05-10T20:42:35.978Z,32.30
2023-05-10T20:45:03.391Z,32.28
2023-05-10T20:47:30.477Z,32.45
2023-05-10T20:49:57.477Z,36.42
2023-05-10T20:52:25.672Z,37.28
2023-05-10T20:54:52.865Z,35.22
2023-05-10T20:57:20.451Z,36.97
2023-05-10T20:59:47.507Z,34.13
2023-05-10T21:02:14.447Z,33.38
2023-05-10T21:04:41.849Z,31.85
2023-05-10T21:07:08.900Z,33.95
2023-05-10T21:09:36.058Z,33.75
2023-05-10T21:12:03.571Z,34.70
2023-05-10T21:14:31.610Z,33.97
2023-05-10T21:16:58.506Z,35.63
2023-05-10T21:19:25.526Z,32.22
2023-05-10T21:21:52.645Z,32.22
2023-05-10T21:24:19.687Z,33.05
2023-05-10T21:26:46.657Z,33.25
2023-05-10T21:29:15.704Z,32.80
2023-05-10T21:31:43.768Z,33.88
2023-05-10T21:34:10.932Z,33.58
2023-05-10T21:36:37.977Z,33.17
2023-05-10T21:39:05.055Z,34.60
2023-05-10T21:41:32.304Z,34.28
2023-05-10T21:43:59.263Z,34.88
2023-05-10T21:46:26.487Z,33.72
2023-05-10T21:48:54.064Z,34.85
2023-05-10T21:51:22.076Z,33.75
2023-05-10T21:53:50.484Z,34.38
2023-05-10T21:56:17.973Z,35.65
2023-05-10T21:58:45.031Z,36.60
2023-05-10T22:01:12.395Z,34.95
2023-05-10T22:03:39.383Z,35.65
2023-05-10T22:06:06.678Z,34.97
2023-05-10T22:08:33.740Z,35.90
2023-05-10T22:11:01.076Z,35.70
2023-05-10T22:13:28.185Z,35.30
2023-05-10T22:15:55.191Z,34.83
2023-05-10T22:18:22.458Z,36.10
2023-05-10T22:20:49.477Z,35.67
2023-05-10T22:23:16.516Z,35.88
2023-05-10T22:25:43.491Z,35.47
2023-05-10T22:28:10.828Z,35.45
2023-05-10T22:30:38.105Z,35.50
2023-05-10T22:33:05.139Z,35.90
2023-05-10T22:35:32.169Z,34.58
2023-05-10T22:37:59.181Z,35.17
2023-05-10T22:40:26.239Z,34.60
2023-05-10T22:42:53.272Z,35.40
2023-05-10T22:45:20.474Z,35.17
2023-05-10T22:47:47.556Z,34.97
2023-05-10T22:50:15.231Z,34.53
2023-05-10T22:52:42.261Z,34.70
2023-05-10T22:55:09.878Z,35.20
2023-05-10T22:57:37.156Z,35.20
2023-05-10T23:00:05.408Z,34.65
2023-05-10T23:02:32.789Z,34.63
2023-05-10T23:04:59.918Z,34.30
2023-05-10T23:07:27.089Z,35.38
2023-05-10T23:09:54.189Z,34.58
2023-05-10T23:12:22.593Z,34.22
2023-05-10T23:14:49.789Z,34.22
2023-05-10T23:17:16.803Z,34.53
2023-05-10T23:19:43.708Z,33.38
2023-05-10T23:22:10.709Z,35.00
2023-05-10T23:24:38.383Z,34.78
2023-05-10T23:27:07.318Z,34.88
2023-05-10T23:29:35.367Z,33.63
2023-05-10T23:32:02.417Z,35.33
2023-05-10T23:34:29.476Z,33.75
2023-05-10T23:36:56.991Z,34.50
2023-05-10T23:39:24.022Z,34.35
2023-05-10T23:41:52.255Z,35.28
2023-05-10T23:44:19.258Z,34.50
2023-05-10T23:46:46.222Z,34.22
2023-05-10T23:49:13.219Z,34.85
2023-05-10T23:51:40.229Z,34.90
2023-05-10T23:54:07.228Z,33.97
2023-05-10T23:56:34.386Z,34.17
2023-05-10T23:59:01.428Z,33.65
